Time;durP1;ratioP1;P1;durP2;ratioP2;P2;SDS_P1;SDS_P2;PMS_P1;PMS_P2;Temp;Humidity;BMP_temperature;BMP_pressure;BME280_temperature;BME280_humidity;BME280_pressure;Samples;Min_cycle;Max_cycle;Signal;HPM_P1;HPM_P2
2023/10/22 00:00:08;;;;;;;;;;;12.90;91.70;;;;;;5118289;27;19986;-80
2023/10/22 00:02:35;;;;;;;;;;;12.90;91.70;;;;;;5120317;27;20006;-80
2023/10/22 00:05:02;;;;;;;;;;;12.90;91.70;;;;;;5123299;27;20080;-80
2023/10/22 00:07:29;;;;;;;;;;;12.90;91.70;;;;;;5119909;27;19983;-84
2023/10/22 00:09:55;;;;;;;;;;;12.90;91.70;;;;;;5122005;27;19979;-80
2023/10/22 00:12:22;;;;;;;;;;;12.80;91.70;;;;;;5125179;27;20089;-80
2023/10/22 00:14:50;;;;;;;;;;;12.80;91.70;;;;;;5126400;27;19978;-80
2023/10/22 00:17:17;;;;;;;;;;;12.80;91.70;;;;;;5125752;27;20005;-80
2023/10/22 00:19:43;;;;;;;;;;;12.80;91.70;;;;;;5122178;27;19986;-80
2023/10/22 00:22:12;;;;;;;;;;;12.70;91.60;;;;;;5122031;27;20481;-81
2023/10/22 00:24:38;;;;;;;;;;;12.70;91.60;;;;;;5123218;27;19985;-80
2023/10/22 00:27:05;;;;;;;;;;;12.70;91.70;;;;;;5116989;27;20085;-81
2023/10/22 00:29:32;;;;;;;;;;;12.70;91.70;;;;;;5121458;27;21135;-80
2023/10/22 00:32:00;;;;;;;;;;;12.70;91.70;;;;;;5118836;27;19999;-81
2023/10/22 00:34:26;;;;;;;;;;;12.60;91.70;;;;;;5122691;27;19979;-80
2023/10/22 00:36:53;;;;;;;;;;;12.60;91.80;;;;;;5119822;27;19987;-81
2023/10/22 00:39:19;;;;;;;;;;;12.60;91.70;;;;;;5118834;27;20051;-81
2023/10/22 00:41:46;;;;;;;;;;;12.60;91.80;;;;;;5117871;27;20515;-80
2023/10/22 00:44:13;;;;;;;;;;;12.60;91.80;;;;;;5120648;27;20488;-81
2023/10/22 00:46:39;;;;;;;;;;;12.50;91.80;;;;;;5120369;27;19994;-81
2023/10/22 00:49:07;;;;;;;;;;;12.50;91.80;;;;;;5116525;27;20572;-81
2023/10/22 00:51:34;;;;;;;;;;;12.50;91.80;;;;;;5119072;27;19974;-81
2023/10/22 00:54:01;;;;;;;;;;;12.50;91.90;;;;;;5117522;27;19983;-79
2023/10/22 00:56:27;;;;;;;;;;;12.50;91.90;;;;;;5119778;27;20069;-81
2023/10/22 00:58:55;;;;;;;;;;;12.40;91.80;;;;;;5118048;27;19983;-81
2023/10/22 01:01:22;;;;;;;;;;;12.40;91.80;;;;;;5117843;27;20078;-81
2023/10/22 01:03:48;;;;;;;;;;;12.40;91.90;;;;;;5116545;27;20049;-81
2023/10/22 01:06:17;;;;;;;;;;;12.40;91.90;;;;;;5103776;27;19989;-79
2023/10/22 01:08:44;;;;;;;;;;;12.40;91.90;;;;;;5119655;27;19974;-80
2023/10/22 01:11:11;;;;;;;;;;;12.40;91.90;;;;;;5114402;27;20065;-80
2023/10/22 01:13:38;;;;;;;;;;;12.30;91.90;;;;;;5120510;27;19997;-80
2023/10/22 01:16:05;;;;;;;;;;;12.30;92.00;;;;;;5119016;27;19990;-81
2023/10/22 01:18:31;;;;;;;;;;;12.30;91.90;;;;;;5121336;27;19974;-81
2023/10/22 01:20:58;;;;;;;;;;;12.30;91.90;;;;;;5122234;27;19974;-81
2023/10/22 01:23:27;;;;;;;;;;;12.30;92.00;;;;;;5119823;27;19997;-81
2023/10/22 01:25:53;;;;;;;;;;;12.30;92.00;;;;;;5121857;27;19998;-81
2023/10/22 01:28:20;;;;;;;;;;;12.20;91.90;;;;;;5115702;27;19981;-79
2023/10/22 01:30:46;;;;;;;;;;;12.20;92.00;;;;;;5113751;27;19990;-79
2023/10/22 01:33:13;;;;;;;;;;;12.20;91.90;;;;;;5121023;27;19994;-80
2023/10/22 01:35:40;;;;;;;;;;;12.20;91.90;;;;;;5120417;27;19982;-80
2023/10/22 01:38:06;;;;;;;;;;;12.20;91.90;;;;;;5116283;27;19978;-80
2023/10/22 01:40:35;;;;;;;;;;;12.20;91.90;;;;;;5115865;27;20501;-80
2023/10/22 01:43:02;;;;;;;;;;;12.20;91.90;;;;;;5111692;27;19997;-80
2023/10/22 01:45:29;;;;;;;;;;;12.20;91.90;;;;;;5117918;27;20025;-80
2023/10/22 01:47:56;;;;;;;;;;;12.10;91.80;;;;;;5117078;27;19985;-80
2023/10/22 01:50:22;;;;;;;;;;;12.10;91.90;;;;;;5124362;27;20001;-80
2023/10/22 01:52:49;;;;;;;;;;;12.10;91.90;;;;;;5119037;27;19990;-79
2023/10/22 01:55:15;;;;;;;;;;;12.10;91.90;;;;;;5121991;27;19979;-81
2023/10/22 01:57:44;;;;;;;;;;;12.10;91.90;;;;;;5119859;27;19974;-80
2023/10/22 02:00:11;;;;;;;;;;;12.10;91.90;;;;;;5122771;27;20351;-80
2023/10/22 02:02:39;;;;;;;;;;;12.00;91.80;;;;;;5122440;27;20146;-80
2023/10/22 02:05:06;;;;;;;;;;;12.10;91.90;;;;;;5125609;27;19974;-80
2023/10/22 02:07:33;;;;;;;;;;;12.10;91.90;;;;;;5125201;27;20571;-79
2023/10/22 02:10:01;;;;;;;;;;;12.00;91.90;;;;;;5120253;27;19979;-80
2023/10/22 02:12:28;;;;;;;;;;;12.10;92.00;;;;;;5118874;27;20038;-79
2023/10/22 02:14:56;;;;;;;;;;;12.00;91.90;;;;;;5120012;27;20055;-78
2023/10/22 02:17:24;;;;;;;;;;;12.00;91.90;;;;;;5123457;27;19998;-80
2023/10/22 02:19:51;;;;;;;;;;;12.00;91.90;;;;;;5121110;27;19990;-79
2023/10/22 02:22:17;;;;;;;;;;;12.00;91.90;;;;;;5122094;27;20104;-79
2023/10/22 02:24:44;;;;;;;;;;;12.00;91.90;;;;;;5117932;27;19986;-79
2023/10/22 02:27:11;;;;;;;;;;;12.00;91.90;;;;;;5121172;27;19994;-77
2023/10/22 02:29:37;;;;;;;;;;;12.00;91.90;;;;;;5124013;27;19983;-79
2023/10/22 02:32:06;;;;;;;;;;;12.00;91.90;;;;;;5123808;27;20001;-79
2023/10/22 02:34:32;;;;;;;;;;;12.00;91.90;;;;;;5118502;27;20459;-79
2023/10/22 02:36:59;;;;;;;;;;;12.00;91.80;;;;;;5115963;27;19975;-78
2023/10/22 02:39:25;;;;;;;;;;;12.00;91.80;;;;;;5123644;27;19997;-79
2023/10/22 02:41:52;;;;;;;;;;;12.00;91.90;;;;;;5122698;27;20027;-78
2023/10/22 02:44:19;;;;;;;;;;;12.00;91.90;;;;;;5122368;27;19981;-79
2023/10/22 02:46:45;;;;;;;;;;;12.00;91.80;;;;;;5117020;27;20006;-81
2023/10/22 02:49:13;;;;;;;;;;;12.00;91.80;;;;;;5124984;27;19975;-81
2023/10/22 02:51:40;;;;;;;;;;;12.00;91.80;;;;;;5121211;28;20021;-81
2023/10/22 02:54:07;;;;;;;;;;;12.00;91.90;;;;;;5120282;28;19990;-81
2023/10/22 02:56:33;;;;;;;;;;;12.00;91.90;;;;;;5119139;27;20031;-82
2023/10/22 02:59:00;;;;;;;;;;;11.90;91.80;;;;;;5125250;27;20458;-81
2023/10/22 03:01:27;;;;;;;;;;;11.90;91.80;;;;;;5121091;27;20069;-80
2023/10/22 03:03:53;;;;;;;;;;;11.90;91.80;;;;;;5119296;27;19986;-80
2023/10/22 03:06:21;;;;;;;;;;;11.90;91.80;;;;;;5126909;27;19994;-81
2023/10/22 03:08:48;;;;;;;;;;;11.90;91.80;;;;;;5117592;27;20385;-79
2023/10/22 03:11:16;;;;;;;;;;;11.90;91.80;;;;;;5119254;27;19975;-80
2023/10/22 03:13:43;;;;;;;;;;;11.90;91.70;;;;;;5117715;27;20089;-79
2023/10/22 03:16:11;;;;;;;;;;;11.90;91.70;;;;;;5119554;27;20113;-79
2023/10/22 03:18:37;;;;;;;;;;;11.90;91.80;;;;;;5120771;27;20026;-79
2023/10/22 03:21:10;;;;;;;;;;;11.90;91.80;;;;;;5120352;27;19989;-79
2023/10/22 03:23:40;;;;;;;;;;;11.90;91.80;;;;;;5112921;27;20006;-80
2023/10/22 03:26:07;;;;;;;;;;;11.90;91.80;;;;;;5111491;27;20041;-79
2023/10/22 03:28:36;;;;;;;;;;;11.90;91.80;;;;;;5120117;27;20474;-79
2023/10/22 03:31:04;;;;;;;;;;;11.90;91.80;;;;;;5120796;28;19999;-79
2023/10/22 03:33:31;;;;;;;;;;;11.90;91.80;;;;;;5123006;27;20075;-79
2023/10/22 03:35:59;;;;;;;;;;;11.90;91.80;;;;;;5125093;27;19985;-79
2023/10/22 03:38:27;;;;;;;;;;;11.80;91.80;;;;;;5126132;27;20483;-79
2023/10/22 03:41:00;;;;;;;;;;;11.90;91.80;;;;;;5126173;27;20017;-79
2023/10/22 03:43:28;;;;;;;;;;;11.90;91.80;;;;;;5117757;27;20009;-79
2023/10/22 03:45:55;;;;;;;;;;;11.80;91.80;;;;;;5120847;27;19998;-80
2023/10/22 03:48:22;;;;;;;;;;;11.80;91.80;;;;;;5121076;27;20399;-80
2023/10/22 03:50:48;;;;;;;;;;;11.80;91.80;;;;;;5122987;27;19982;-79
2023/10/22 03:53:15;;;;;;;;;;;11.80;91.80;;;;;;5122560;27;20001;-80
2023/10/22 03:55:42;;;;;;;;;;;11.80;91.80;;;;;;5124541;27;19990;-79
2023/10/22 03:58:10;;;;;;;;;;;11.80;91.90;;;;;;5129114;27;19982;-79
2023/10/22 04:00:36;;;;;;;;;;;11.80;91.90;;;;;;5125699;27;19998;-79
2023/10/22 04:03:03;;;;;;;;;;;11.80;91.90;;;;;;5122776;27;20109;-79
2023/10/22 04:05:30;;;;;;;;;;;11.80;91.90;;;;;;5119829;27;19982;-79
2023/10/22 04:07:56;;;;;;;;;;;11.80;91.90;;;;;;5118655;27;19990;-80
2023/10/22 04:10:23;;;;;;;;;;;11.80;91.90;;;;;;5121254;27;19974;-79
2023/10/22 04:12:50;;;;;;;;;;;11.80;91.90;;;;;;5126891;27;19995;-79
2023/10/22 04:15:18;;;;;;;;;;;11.80;91.90;;;;;;5125417;27;19985;-79
2023/10/22 04:17:45;;;;;;;;;;;11.80;92.00;;;;;;5128387;27;19982;-79
2023/10/22 04:20:12;;;;;;;;;;;11.80;92.00;;;;;;5127290;27;19981;-79
2023/10/22 04:22:39;;;;;;;;;;;11.80;92.00;;;;;;5126017;27;19994;-79
2023/10/22 04:25:06;;;;;;;;;;;11.80;92.00;;;;;;5124840;27;19986;-79
2023/10/22 04:27:32;;;;;;;;;;;11.70;92.00;;;;;;5126402;27;20017;-79
2023/10/22 04:29:59;;;;;;;;;;;11.70;92.00;;;;;;5128098;27;19978;-80
2023/10/22 04:32:27;;;;;;;;;;;11.70;92.00;;;;;;5124009;27;19998;-79
2023/10/22 04:34:54;;;;;;;;;;;11.70;92.00;;;;;;5123379;27;19986;-79
2023/10/22 04:37:23;;;;;;;;;;;11.70;91.90;;;;;;5125788;27;19983;-78
2023/10/22 04:39:50;;;;;;;;;;;11.70;91.90;;;;;;5124348;27;19978;-80
2023/10/22 04:42:18;;;;;;;;;;;11.70;91.90;;;;;;5126930;27;20001;-79
2023/10/22 04:44:45;;;;;;;;;;;11.70;91.80;;;;;;5120588;27;19982;-79
2023/10/22 04:47:12;;;;;;;;;;;11.60;91.70;;;;;;5117149;27;20724;-79
2023/10/22 04:49:40;;;;;;;;;;;11.60;91.70;;;;;;5120385;27;19983;-80
2023/10/22 04:52:09;;;;;;;;;;;11.70;91.70;;;;;;5127357;27;19994;-79
2023/10/22 04:54:35;;;;;;;;;;;11.60;91.70;;;;;;5122090;27;19974;-80
2023/10/22 04:57:02;;;;;;;;;;;11.70;91.70;;;;;;5122414;27;19989;-78
2023/10/22 04:59:29;;;;;;;;;;;11.60;91.70;;;;;;5118913;27;19986;-79
2023/10/22 05:01:56;;;;;;;;;;;11.60;91.60;;;;;;5119358;27;20002;-79
2023/10/22 05:04:22;;;;;;;;;;;11.60;91.60;;;;;;5123350;27;19989;-79
2023/10/22 05:06:53;;;;;;;;;;;11.60;91.60;;;;;;5119940;27;20021;-79
2023/10/22 05:09:19;;;;;;;;;;;11.60;91.50;;;;;;5124553;27;20017;-79
2023/10/22 05:11:46;;;;;;;;;;;11.60;91.50;;;;;;5122838;27;19999;-79
2023/10/22 05:14:13;;;;;;;;;;;11.60;91.50;;;;;;5126160;27;19985;-79
2023/10/22 05:16:39;;;;;;;;;;;11.60;91.80;;;;;;5119512;27;20014;-78
2023/10/22 05:19:06;;;;;;;;;;;11.60;91.50;;;;;;5122442;27;19989;-78
2023/10/22 05:21:34;;;;;;;;;;;11.60;91.50;;;;;;5123854;27;20358;-79
2023/10/22 05:24:02;;;;;;;;;;;11.60;91.50;;;;;;5115942;27;19978;-78
2023/10/22 05:26:28;;;;;;;;;;;11.60;91.60;;;;;;5119527;27;19975;-78
2023/10/22 05:28:55;;;;;;;;;;;11.60;91.50;;;;;;5115574;27;19986;-79
2023/10/22 05:31:22;;;;;;;;;;;11.60;91.60;;;;;;5113091;27;19995;-79
2023/10/22 05:33:50;;;;;;;;;;;11.60;91.60;;;;;;5113018;27;19975;-79
2023/10/22 05:36:17;;;;;;;;;;;11.60;91.60;;;;;;5120159;27;20648;-79
2023/10/22 05:38:44;;;;;;;;;;;11.60;91.60;;;;;;5109098;27;20018;-79
2023/10/22 05:41:17;;;;;;;;;;;11.60;91.80;;;;;;5118018;27;19979;-79
2023/10/22 05:43:44;;;;;;;;;;;11.60;91.60;;;;;;5117624;27;20367;-79
2023/10/22 05:46:11;;;;;;;;;;;11.60;91.60;;;;;;5112879;27;19995;-78
2023/10/22 05:48:37;;;;;;;;;;;11.60;91.70;;;;;;5117486;27;20069;-78
2023/10/22 05:51:04;;;;;;;;;;;11.60;91.70;;;;;;5120428;27;19986;-79
2023/10/22 05:53:31;;;;;;;;;;;11.60;91.70;;;;;;5116887;27;19995;-78
2023/10/22 05:55:58;;;;;;;;;;;11.60;91.70;;;;;;5115593;27;19985;-78
2023/10/22 05:58:26;;;;;;;;;;;11.50;91.80;;;;;;5109591;27;19982;-78
2023/10/22 06:00:53;;;;;;;;;;;11.60;91.80;;;;;;5111956;27;20398;-78
2023/10/22 06:03:20;;;;;;;;;;;11.50;91.80;;;;;;5115239;27;19998;-78
2023/10/22 06:05:46;;;;;;;;;;;11.60;91.90;;;;;;5112441;27;19974;-79
2023/10/22 06:08:13;;;;;;;;;;;11.50;92.00;;;;;;5112298;27;20274;-79
2023/10/22 06:10:40;;;;;;;;;;;11.50;92.00;;;;;;5109361;27;19989;-79
2023/10/22 06:13:06;;;;;;;;;;;11.50;92.00;;;;;;5112531;27;20005;-78
2023/10/22 06:15:36;;;;;;;;;;;11.50;92.00;;;;;;5117225;27;19998;-78
2023/10/22 06:18:03;;;;;;;;;;;11.50;92.00;;;;;;5115095;27;19975;-78
2023/10/22 06:20:30;;;;;;;;;;;11.50;92.00;;;;;;5112139;27;19979;-78
2023/10/22 06:22:57;;;;;;;;;;;11.50;92.00;;;;;;5115969;27;19995;-78
2023/10/22 06:25:23;;;;;;;;;;;11.50;92.00;;;;;;5125085;27;20446;-79
2023/10/22 06:27:50;;;;;;;;;;;11.50;92.00;;;;;;5120380;27;19994;-79
2023/10/22 06:30:21;;;;;;;;;;;11.50;92.10;;;;;;5113500;27;20463;-79
2023/10/22 06:32:49;;;;;;;;;;;11.40;92.10;;;;;;5113743;27;20651;-79
2023/10/22 06:35:16;;;;;;;;;;;11.40;92.10;;;;;;5117271;27;19983;-79
2023/10/22 06:37:43;;;;;;;;;;;11.40;92.10;;;;;;5122251;27;20470;-79
2023/10/22 06:40:10;;;;;;;;;;;11.50;92.10;;;;;;5118548;27;19978;-79
2023/10/22 06:42:36;;;;;;;;;;;11.50;92.20;;;;;;5116988;27;19998;-79
2023/10/22 06:45:05;;;;;;;;;;;11.50;92.10;;;;;;5110986;27;20362;-79
2023/10/22 06:47:34;;;;;;;;;;;11.40;92.10;;;;;;5116153;27;20454;-80
2023/10/22 06:50:03;;;;;;;;;;;11.50;92.20;;;;;;5114621;27;19975;-80
2023/10/22 06:52:29;;;;;;;;;;;11.50;92.20;;;;;;5112638;27;20017;-79
2023/10/22 06:54:56;;;;;;;;;;;11.50;92.20;;;;;;5112176;27;20004;-79
2023/10/22 06:57:22;;;;;;;;;;;11.50;92.20;;;;;;5118819;27;19974;-79
2023/10/22 06:59:49;;;;;;;;;;;11.40;92.10;;;;;;5115736;27;19975;-79
2023/10/22 07:02:17;;;;;;;;;;;11.50;92.20;;;;;;5108216;27;20116;-80
2023/10/22 07:04:44;;;;;;;;;;;11.40;92.10;;;;;;5116102;27;19975;-80
2023/10/22 07:07:12;;;;;;;;;;;11.50;92.00;;;;;;5114842;27;20486;-79
2023/10/22 07:09:39;;;;;;;;;;;11.50;92.00;;;;;;5122095;27;20343;-80
2023/10/22 07:12:06;;;;;;;;;;;11.50;92.00;;;;;;5119772;27;19990;-80
2023/10/22 07:14:32;;;;;;;;;;;11.50;91.90;;;;;;5125349;27;19979;-80
2023/10/22 07:16:59;;;;;;;;;;;11.50;91.90;;;;;;5122830;27;19998;-80
2023/10/22 07:19:26;;;;;;;;;;;11.50;91.80;;;;;;5122028;27;19974;-80
2023/10/22 07:21:52;;;;;;;;;;;11.50;91.80;;;;;;5121242;27;20012;-79
2023/10/22 07:24:20;;;;;;;;;;;11.50;91.80;;;;;;5123130;27;19974;-81
2023/10/22 07:26:47;;;;;;;;;;;11.50;91.80;;;;;;5119722;27;19978;-80
2023/10/22 07:29:14;;;;;;;;;;;11.50;91.80;;;;;;5121450;27;19994;-78
2023/10/22 07:31:43;;;;;;;;;;;11.50;91.80;;;;;;5119849;27;19990;-79
2023/10/22 07:34:12;;;;;;;;;;;11.60;91.80;;;;;;5119548;27;19993;-80
2023/10/22 07:36:39;;;;;;;;;;;11.60;91.80;;;;;;5124558;27;20445;-80
2023/10/22 07:39:05;;;;;;;;;;;11.60;91.80;;;;;;5118549;27;20207;-80
2023/10/22 07:41:33;;;;;;;;;;;11.50;91.70;;;;;;5123123;27;19975;-80
2023/10/22 07:44:00;;;;;;;;;;;11.60;91.80;;;;;;5121710;27;19978;-79
2023/10/22 07:46:26;;;;;;;;;;;11.60;91.70;;;;;;5118049;27;19990;-79
2023/10/22 07:48:53;;;;;;;;;;;11.60;91.70;;;;;;5119529;27;20516;-80
2023/10/22 07:51:21;;;;;;;;;;;11.60;91.80;;;;;;5122635;27;20031;-79
2023/10/22 07:53:48;;;;;;;;;;;11.60;91.80;;;;;;5120061;27;19981;-79
2023/10/22 07:56:17;;;;;;;;;;;11.60;91.80;;;;;;5116358;27;20506;-80
2023/10/22 07:58:45;;;;;;;;;;;11.60;91.80;;;;;;5120424;27;20073;-80
2023/10/22 08:01:11;;;;;;;;;;;11.50;91.80;;;;;;5120660;27;20039;-79
2023/10/22 08:03:38;;;;;;;;;;;11.60;91.80;;;;;;5123181;27;20499;-78
2023/10/22 08:06:05;;;;;;;;;;;11.60;91.80;;;;;;5120511;27;20486;-80
2023/10/22 08:08:32;;;;;;;;;;;11.60;91.80;;;;;;5110727;27;19995;-80
2023/10/22 08:10:59;;;;;;;;;;;11.60;91.80;;;;;;5121642;27;19978;-79
2023/10/22 08:13:25;;;;;;;;;;;11.60;91.70;;;;;;5116344;27;20540;-77
2023/10/22 08:15:54;;;;;;;;;;;11.60;91.70;;;;;;5117928;27;20497;-79
2023/10/22 08:18:21;;;;;;;;;;;11.60;91.70;;;;;;5120829;27;20424;-79
2023/10/22 08:20:47;;;;;;;;;;;11.60;91.70;;;;;;5120603;27;20355;-79
2023/10/22 08:23:14;;;;;;;;;;;11.60;91.80;;;;;;5116509;27;19998;-79
2023/10/22 08:25:49;;;;;;;;;;;11.60;91.80;;;;;;5123012;27;19974;-79
2023/10/22 08:28:16;;;;;;;;;;;11.60;91.80;;;;;;5121487;27;20001;-79
2023/10/22 08:30:44;;;;;;;;;;;11.60;91.80;;;;;;5117141;27;20400;-79
2023/10/22 08:33:12;;;;;;;;;;;11.70;91.80;;;;;;5117244;27;19994;-79
2023/10/22 08:35:39;;;;;;;;;;;11.60;91.80;;;;;;5118561;27;19982;-79
2023/10/22 08:38:06;;;;;;;;;;;11.60;91.80;;;;;;5119103;27;19986;-80
2023/10/22 08:40:34;;;;;;;;;;;11.70;91.90;;;;;;5113888;27;20101;-79
2023/10/22 08:43:01;;;;;;;;;;;11.70;91.90;;;;;;5121251;27;20478;-80
2023/10/22 08:45:28;;;;;;;;;;;11.70;91.80;;;;;;5116806;27;20001;-79
2023/10/22 08:47:55;;;;;;;;;;;11.70;91.80;;;;;;5114973;27;20324;-79
2023/10/22 08:50:24;;;;;;;;;;;11.70;91.80;;;;;;5112907;27;19982;-79
2023/10/22 08:52:50;;;;;;;;;;;11.70;91.80;;;;;;5122025;27;20013;-78
2023/10/22 08:55:17;;;;;;;;;;;11.70;91.70;;;;;;5116368;27;20472;-79
2023/10/22 08:57:44;;;;;;;;;;;11.80;91.80;;;;;;5117031;27;19980;-79
2023/10/22 09:00:13;;;;;;;;;;;11.80;92.10;;;;;;5113623;27;20132;-78
2023/10/22 09:02:41;;;;;;;;;;;11.80;91.80;;;;;;5120436;27;20016;-80
2023/10/22 09:05:08;;;;;;;;;;;11.80;92.10;;;;;;5111184;27;19986;-80
2023/10/22 09:07:52;;;;;;;;;;;11.90;91.80;;;;;;5120074;27;20351;-80
2023/10/22 09:10:26;;;;;;;;;;;11.90;91.70;;;;;;5114780;27;20386;-78
2023/10/22 09:12:53;;;;;;;;;;;11.90;91.70;;;;;;5122040;27;19990;-79
2023/10/22 09:15:19;;;;;;;;;;;11.90;91.60;;;;;;5116436;27;20023;-79
2023/10/22 09:17:46;;;;;;;;;;;12.00;91.60;;;;;;5124256;27;19975;-80
2023/10/22 09:20:20;;;;;;;;;;;12.00;91.50;;;;;;5117789;27;20432;-80
2023/10/22 09:22:47;;;;;;;;;;;12.10;91.50;;;;;;5118891;27;19989;-79
2023/10/22 09:25:16;;;;;;;;;;;12.10;91.40;;;;;;5118767;27;20533;-79
2023/10/22 09:27:43;;;;;;;;;;;12.10;91.30;;;;;;5121109;27;20458;-78
2023/10/22 09:30:11;;;;;;;;;;;12.20;91.30;;;;;;5117808;27;20006;-78
2023/10/22 09:32:45;;;;;;;;;;;12.20;91.30;;;;;;5115168;27;19990;-79
2023/10/22 09:35:13;;;;;;;;;;;12.20;91.20;;;;;;5118002;27;19985;-79
2023/10/22 09:37:50;;;;;;;;;;;12.20;91.20;;;;;;5119342;27;20446;-79
2023/10/22 09:40:24;;;;;;;;;;;12.30;91.10;;;;;;5115563;27;20018;-80
2023/10/22 09:42:50;;;;;;;;;;;12.30;91.00;;;;;;5114403;27;19991;-80
2023/10/22 09:45:18;;;;;;;;;;;12.40;90.90;;;;;;5117977;27;19982;-80
2023/10/22 09:47:46;;;;;;;;;;;12.50;90.80;;;;;;5114000;27;19975;-80
2023/10/22 09:50:18;;;;;;;;;;;12.50;90.80;;;;;;5113880;27;20094;-80
2023/10/22 09:52:45;;;;;;;;;;;12.60;90.60;;;;;;5104031;27;20372;-79
2023/10/22 09:55:13;;;;;;;;;;;12.60;90.50;;;;;;5114114;27;20530;-79
2023/10/22 09:57:41;;;;;;;;;;;12.70;90.50;;;;;;5116476;27;19974;-79
2023/10/22 10:00:12;;;;;;;;;;;12.80;90.50;;;;;;5114943;27;19978;-80
2023/10/22 10:02:39;;;;;;;;;;;12.90;90.40;;;;;;5119399;27;20000;-80
2023/10/22 10:05:07;;;;;;;;;;;12.90;90.40;;;;;;5118066;27;20594;-80
2023/10/22 10:07:33;;;;;;;;;;;13.00;90.20;;;;;;5121017;27;20611;-79
2023/10/22 10:10:00;;;;;;;;;;;13.10;90.00;;;;;;5120516;27;20447;-79
2023/10/22 10:12:30;;;;;;;;;;;13.20;89.40;;;;;;5120262;27;19990;-80
2023/10/22 10:14:58;;;;;;;;;;;13.20;89.60;;;;;;5116502;27;19990;-78
2023/10/22 10:17:25;;;;;;;;;;;13.30;89.20;;;;;;5114801;27;20493;-80
2023/10/22 10:19:52;;;;;;;;;;;13.40;88.80;;;;;;5117041;27;20145;-79
2023/10/22 10:22:38;;;;;;;;;;;13.50;88.50;;;;;;5116613;27;20026;-80
2023/10/22 10:25:23;;;;;;;;;;;13.60;88.30;;;;;;5118099;27;20069;-79
2023/10/22 10:27:50;;;;;;;;;;;13.60;88.50;;;;;;5117512;27;19986;-80
2023/10/22 10:30:20;;;;;;;;;;;13.70;88.50;;;;;;5114431;27;20055;-80
2023/10/22 10:32:49;;;;;;;;;;;13.70;88.20;;;;;;5118862;27;20005;-80
2023/10/22 10:35:16;;;;;;;;;;;13.80;88.20;;;;;;5112789;27;20069;-79
2023/10/22 10:37:58;;;;;;;;;;;13.80;87.80;;;;;;5118373;27;20013;-78
2023/10/22 10:40:39;;;;;;;;;;;13.90;87.70;;;;;;5118211;27;19986;-78
2023/10/22 10:43:06;;;;;;;;;;;13.90;87.60;;;;;;5119956;27;20146;-80
2023/10/22 10:45:34;;;;;;;;;;;14.00;87.70;;;;;;5112372;27;19994;-79
2023/10/22 10:48:01;;;;;;;;;;;14.10;87.20;;;;;;5120446;27;19982;-80
2023/10/22 10:50:27;;;;;;;;;;;14.10;87.30;;;;;;5123777;27;20029;-79
2023/10/22 10:52:58;;;;;;;;;;;14.20;86.70;;;;;;5120740;27;20033;-80
2023/10/22 10:55:33;;;;;;;;;;;14.20;85.90;;;;;;5120948;27;20031;-79
2023/10/22 10:58:00;;;;;;;;;;;14.30;85.40;;;;;;5121610;27;19983;-79
2023/10/22 11:00:28;;;;;;;;;;;14.40;85.50;;;;;;5115494;27;20693;-80
2023/10/22 11:02:56;;;;;;;;;;;14.40;85.30;;;;;;5125088;27;20167;-80
2023/10/22 11:05:30;;;;;;;;;;;14.50;85.50;;;;;;5125740;27;20069;-79
2023/10/22 11:07:57;;;;;;;;;;;14.50;85.00;;;;;;5116352;27;20001;-79
2023/10/22 11:10:23;;;;;;;;;;;14.50;84.50;;;;;;5122194;27;19990;-79
2023/10/22 11:12:51;;;;;;;;;;;14.60;84.30;;;;;;5117659;27;19990;-79
2023/10/22 11:15:17;;;;;;;;;;;14.60;84.30;;;;;;5120022;27;19978;-79
2023/10/22 11:17:44;;;;;;;;;;;14.60;84.80;;;;;;5119643;27;20407;-78
2023/10/22 11:20:13;;;;;;;;;;;14.60;85.10;;;;;;5122421;27;19978;-80
2023/10/22 11:22:40;;;;;;;;;;;14.70;85.00;;;;;;5118612;27;20002;-80
2023/10/22 11:25:08;;;;;;;;;;;14.70;84.40;;;;;;5123279;27;19979;-78
2023/10/22 11:27:36;;;;;;;;;;;14.70;84.80;;;;;;5114065;27;20365;-79
2023/10/22 11:30:02;;;;;;;;;;;14.80;84.50;;;;;;5121762;27;20002;-79
2023/10/22 11:32:29;;;;;;;;;;;14.80;84.40;;;;;;5118051;27;20394;-78
2023/10/22 11:34:59;;;;;;;;;;;14.80;84.20;;;;;;5122595;27;19978;-79
2023/10/22 11:37:36;;;;;;;;;;;14.90;84.40;;;;;;5122861;27;20450;-78
2023/10/22 11:40:18;;;;;;;;;;;14.90;83.90;;;;;;5125199;27;19978;-79
2023/10/22 11:42:44;;;;;;;;;;;14.90;84.10;;;;;;5121963;27;19990;-78
2023/10/22 11:45:12;;;;;;;;;;;15.00;84.20;;;;;;5120598;27;19978;-80
2023/10/22 11:47:38;;;;;;;;;;;15.00;84.40;;;;;;5118640;27;20487;-80
2023/10/22 11:50:06;;;;;;;;;;;15.00;83.80;;;;;;5123364;27;20001;-79
2023/10/22 11:52:49;;;;;;;;;;;15.10;83.20;;;;;;5119216;27;19998;-80
2023/10/22 11:55:15;;;;;;;;;;;15.20;83.20;;;;;;5113425;27;19986;-78
2023/10/22 11:57:42;;;;;;;;;;;15.30;82.40;;;;;;5115935;27;19975;-80
2023/10/22 12:00:10;;;;;;;;;;;15.30;82.60;;;;;;5117182;27;20009;-80
2023/10/22 12:02:38;;;;;;;;;;;15.40;82.20;;;;;;5117555;27;20037;-80
2023/10/22 12:05:05;;;;;;;;;;;15.40;82.30;;;;;;5122243;27;19979;-79
2023/10/22 12:07:32;;;;;;;;;;;15.40;82.50;;;;;;5115092;27;19983;-80
2023/10/22 12:10:00;;;;;;;;;;;15.40;82.00;;;;;;5114960;27;19994;-80
2023/10/22 12:12:27;;;;;;;;;;;15.40;82.20;;;;;;5122210;27;19998;-78
2023/10/22 12:14:54;;;;;;;;;;;15.50;82.30;;;;;;5118599;27;19983;-78
2023/10/22 12:17:20;;;;;;;;;;;15.40;82.20;;;;;;5121924;27;19994;-79
2023/10/22 12:19:47;;;;;;;;;;;15.40;82.20;;;;;;5119837;27;19985;-78
2023/10/22 12:22:13;;;;;;;;;;;15.40;82.00;;;;;;5117122;27;19994;-79
2023/10/22 12:24:40;;;;;;;;;;;15.50;82.40;;;;;;5119041;27;20001;-79
2023/10/22 12:27:08;;;;;;;;;;;15.50;82.30;;;;;;5115215;27;20013;-80
2023/10/22 12:29:35;;;;;;;;;;;15.50;82.10;;;;;;5117815;27;19990;-81
2023/10/22 12:32:01;;;;;;;;;;;15.50;81.90;;;;;;5114914;27;19998;-80
2023/10/22 12:34:28;;;;;;;;;;;15.60;81.30;;;;;;5120950;27;19985;-80
2023/10/22 12:36:55;;;;;;;;;;;15.60;82.00;;;;;;5117276;27;20062;-78
2023/10/22 12:39:22;;;;;;;;;;;15.60;80.80;;;;;;5118039;27;19978;-80
2023/10/22 12:41:48;;;;;;;;;;;15.60;81.30;;;;;;5113659;27;19995;-79
2023/10/22 12:44:16;;;;;;;;;;;15.60;81.00;;;;;;5116253;27;19989;-78
2023/10/22 12:46:43;;;;;;;;;;;15.60;81.00;;;;;;5115653;27;19991;-80
2023/10/22 12:49:09;;;;;;;;;;;15.70;81.00;;;;;;5116807;27;20011;-78
2023/10/22 12:51:36;;;;;;;;;;;15.70;80.60;;;;;;5118621;27;19974;-79
2023/10/22 12:54:04;;;;;;;;;;;15.80;79.90;;;;;;5116107;27;19978;-80
2023/10/22 12:56:30;;;;;;;;;;;15.90;80.70;;;;;;5116100;27;20001;-80
2023/10/22 12:58:57;;;;;;;;;;;15.90;80.70;;;;;;5120050;27;19978;-80
2023/10/22 13:01:25;;;;;;;;;;;15.90;80.40;;;;;;5119783;27;19994;-81
2023/10/22 13:03:52;;;;;;;;;;;16.00;79.50;;;;;;5120162;27;20009;-80
2023/10/22 13:06:18;;;;;;;;;;;16.10;80.20;;;;;;5116350;27;20450;-80
2023/10/22 13:08:45;;;;;;;;;;;16.10;80.10;;;;;;5117776;27;20491;-80
2023/10/22 13:11:17;;;;;;;;;;;16.10;80.30;;;;;;5120268;27;20076;-80
2023/10/22 13:13:43;;;;;;;;;;;16.10;80.50;;;;;;5119672;27;20471;-80
2023/10/22 13:16:10;;;;;;;;;;;16.10;80.50;;;;;;5116431;27;20427;-80
2023/10/22 13:18:38;;;;;;;;;;;16.10;80.70;;;;;;5121638;27;19978;-80
2023/10/22 13:21:05;;;;;;;;;;;16.10;81.00;;;;;;5116404;27;19979;-78
2023/10/22 13:23:31;;;;;;;;;;;16.10;81.00;;;;;;5116997;27;20084;-80
2023/10/22 13:25:58;;;;;;;;;;;16.00;81.40;;;;;;5117071;27;19982;-80
2023/10/22 13:28:24;;;;;;;;;;;16.00;81.20;;;;;;5114065;27;19985;-80
2023/10/22 13:30:51;;;;;;;;;;;16.00;81.60;;;;;;5114429;27;20293;-81
2023/10/22 13:33:18;;;;;;;;;;;15.90;81.70;;;;;;5116902;27;20081;-80
2023/10/22 13:35:45;;;;;;;;;;;15.90;81.70;;;;;;5120044;27;20028;-80
2023/10/22 13:38:12;;;;;;;;;;;15.90;81.40;;;;;;5117325;27;20355;-79
2023/10/22 13:40:39;;;;;;;;;;;15.90;81.30;;;;;;5118725;27;19975;-80
2023/10/22 13:43:06;;;;;;;;;;;15.90;81.60;;;;;;5114404;27;20001;-80
2023/10/22 13:45:33;;;;;;;;;;;15.90;80.70;;;;;;5120409;27;19998;-80
2023/10/22 13:48:00;;;;;;;;;;;15.90;80.50;;;;;;5113101;27;19978;-80
2023/10/22 13:50:26;;;;;;;;;;;15.90;80.70;;;;;;5117626;27;19994;-80
2023/10/22 13:52:54;;;;;;;;;;;15.90;80.30;;;;;;5117011;27;19998;-78
2023/10/22 13:55:21;;;;;;;;;;;15.90;81.40;;;;;;5120947;27;19983;-80
2023/10/22 13:57:47;;;;;;;;;;;15.90;81.50;;;;;;5115940;27;19975;-80
2023/10/22 14:00:14;;;;;;;;;;;15.90;80.60;;;;;;5124170;27;19978;-78
2023/10/22 14:02:40;;;;;;;;;;;15.90;81.20;;;;;;5116645;27;20001;-80
2023/10/22 14:05:09;;;;;;;;;;;15.90;80.70;;;;;;5121920;27;19982;-79
2023/10/22 14:07:36;;;;;;;;;;;15.90;80.60;;;;;;5110356;27;19982;-80
2023/10/22 14:10:04;;;;;;;;;;;15.80;80.50;;;;;;5117602;27;19994;-80
2023/10/22 14:12:30;;;;;;;;;;;15.90;81.20;;;;;;5113812;27;20021;-77
2023/10/22 14:14:57;;;;;;;;;;;15.90;81.40;;;;;;5116343;27;20009;-79
2023/10/22 14:17:23;;;;;;;;;;;15.90;81.00;;;;;;5115690;27;19994;-80